Accueil
METAR-TAF:

METAR-TAF

Aéroports :

Lexington, Caroline du Nord, États-Unis

latitude: 35-46-52N, longitude: 080-18-14W, altitude: 223 m

Observation

Le bulletin a été fait il y a 11 minutes, à 18:35 UTC
Vent 3 kt de sud-ouest
Température 32°C
Humidité 56%
Pression 1012 hPa
Visibilité: 16.1 km
Nuages épars à une hauteur de 4500 ft

METAR: KEXX 101835Z AUTO 23003KT 10SM SCT045 32/22 A2987 RMK AO2 T03180224

Heure: 14:46 (18:46 UTC)


TAF: absent

Observations et prévisions météorologiques de plus de 4000 aéroports (messages METAR et TAF).

Les stations disponibles sont représentées par des disques jaunes et rouges sur la carte.

Passer la souris dessus pour voir le nom de la station.

Cliquer dessus pour voir les observations et prévisions météorologiques.

Pour changer de carte: cliquez sur les boutons verts avec une croix noire pour zoomer, sur le bouton vert avec un tiret pour effectuer un zoom arrière, ou sur les flèches vertes pour les cartes adjacentes.


METAR-TAF: